Time;durP1;ratioP1;P1;durP2;ratioP2;P2;SDS_P1;SDS_P2;PMS_P1;PMS_P2;Temp;Humidity;BMP_temperature;BMP_pressure;BME280_temperature;BME280_humidity;BME280_pressure;Samples;Min_cycle;Max_cycle;Signal;HPM_P1;HPM_P2
2022/10/29 00:01:42;;;;;;;33.53;8.38;;;16.00;99.90;;;;;;4967511;28;20023;-82
2022/10/29 00:04:08;;;;;;;27.67;8.55;;;16.00;99.90;;;;;;4967626;28;20579;-81
2022/10/29 00:06:34;;;;;;;20.73;8.23;;;15.90;99.90;;;;;;4985269;28;20027;-82
2022/10/29 00:08:59;;;;;;;24.05;8.50;;;16.00;99.90;;;;;;4967544;28;20031;-81
2022/10/29 00:11:25;;;;;;;26.63;8.32;;;15.90;99.90;;;;;;4967656;28;20491;-82
2022/10/29 00:13:57;;;;;;;27.85;8.15;;;15.90;99.90;;;;;;4985290;28;20100;-79
2022/10/29 00:16:26;;;;;;;40.58;8.95;;;15.90;99.90;;;;;;4967546;28;20514;-78
2022/10/29 00:18:52;;;;;;;38.47;8.35;;;15.80;99.90;;;;;;4967854;28;20023;-81
2022/10/29 00:21:21;;;;;;;21.13;7.80;;;15.80;99.90;;;;;;4966575;28;20039;-81
2022/10/29 00:23:48;;;;;;;34.13;9.40;;;15.80;99.90;;;;;;4983693;28;20029;-82
2022/10/29 00:26:14;;;;;;;23.90;8.40;;;15.80;99.90;;;;;;4986320;28;20031;-81
2022/10/29 00:28:40;;;;;;;26.05;7.88;;;15.70;99.90;;;;;;4988475;28;20031;-81
2022/10/29 00:31:10;;;;;;;33.53;9.32;;;15.70;99.90;;;;;;4971191;28;20049;-81
2022/10/29 00:33:36;;;;;;;33.10;8.63;;;15.70;99.90;;;;;;4971313;28;20050;-80
2022/10/29 00:36:08;;;;;;;29.70;8.65;;;15.70;99.90;;;;;;4987904;28;20026;-80
2022/10/29 00:38:35;;;;;;;29.10;8.77;;;15.70;99.90;;;;;;4970770;28;20076;-80
2022/10/29 00:41:01;;;;;;;33.55;9.10;;;15.70;99.90;;;;;;4970954;28;20031;-83
2022/10/29 00:43:27;;;;;;;29.63;7.82;;;15.70;99.90;;;;;;4988447;28;20105;-81
2022/10/29 00:46:00;;;;;;;28.08;8.05;;;15.80;99.90;;;;;;4971286;28;20114;-83
2022/10/29 00:48:28;;;;;;;27.58;9.18;;;15.80;99.90;;;;;;4970405;28;20031;-78
2022/10/29 00:50:56;;;;;;;30.23;8.52;;;15.80;99.90;;;;;;4988182;28;20095;-81
2022/10/29 00:53:25;;;;;;;33.92;9.50;;;15.70;99.90;;;;;;4971145;28;20037;-81
2022/10/29 00:55:51;;;;;;;34.08;10.20;;;15.80;99.90;;;;;;4988473;28;20045;-80
2022/10/29 00:58:19;;;;;;;37.08;9.38;;;15.70;99.90;;;;;;4986980;28;20113;-81
2022/10/29 01:00:46;;;;;;;30.77;9.38;;;15.70;99.90;;;;;;4987070;28;20035;-81
2022/10/29 01:03:11;;;;;;;29.50;9.35;;;15.70;99.90;;;;;;4987146;28;20088;-82
2022/10/29 01:05:38;;;;;;;28.23;9.63;;;15.70;99.90;;;;;;4988137;28;20083;-80
2022/10/29 01:08:04;;;;;;;18.42;8.30;;;15.60;99.90;;;;;;4969408;28;20033;-81
2022/10/29 01:10:58;;;;;;;33.70;8.80;;;15.60;99.90;;;;;;4968948;28;20200;-81
2022/10/29 01:13:49;;;;;;;23.48;7.95;;;15.60;99.90;;;;;;4968198;29;20027;-81
2022/10/29 01:16:29;;;;;;;35.67;10.00;;;15.60;99.90;;;;;;4985023;28;20170;-81
2022/10/29 01:19:22;;;;;;;27.02;8.98;;;15.60;99.90;;;;;;4969505;28;20035;-82
2022/10/29 01:22:10;;;;;;;27.50;9.20;;;15.50;99.90;;;;;;4970135;28;20034;-81
2022/10/29 01:24:50;;;;;;;35.28;8.90;;;15.50;99.90;;;;;;4986372;28;20078;-80
2022/10/29 01:27:16;;;;;;;32.30;9.32;;;15.50;99.90;;;;;;4970572;28;20095;-81
2022/10/29 01:30:12;;;;;;;46.95;10.77;;;15.40;99.90;;;;;;4987807;28;20027;-81
2022/10/29 01:32:50;;;;;;;35.38;10.15;;;15.40;99.90;;;;;;4987419;28;20035;-82
2022/10/29 01:35:44;;;;;;;42.22;10.57;;;15.40;99.90;;;;;;4970297;28;20055;-80
2022/10/29 01:38:33;;;;;;;32.25;10.15;;;15.40;99.90;;;;;;4968500;28;20055;-80
2022/10/29 01:41:18;;;;;;;28.15;9.90;;;15.30;99.90;;;;;;4987450;28;20106;-81
2022/10/29 01:43:46;;;;;;;30.83;9.48;;;15.40;99.90;;;;;;4970467;28;20035;-81
2022/10/29 01:46:37;;;;;;;31.35;10.52;;;15.30;99.90;;;;;;4969934;28;20038;-79
2022/10/29 01:49:09;;;;;;;28.13;9.90;;;15.30;99.90;;;;;;4986017;28;20035;-80
2022/10/29 01:51:37;;;;;;;28.30;10.25;;;15.30;99.90;;;;;;4987382;28;20065;-79
2022/10/29 01:54:08;;;;;;;36.35;10.65;;;15.30;99.90;;;;;;4969622;28;20034;-81
2022/10/29 01:56:34;;;;;;;34.85;10.60;;;15.30;99.90;;;;;;4970009;28;20387;-81
2022/10/29 01:59:01;;;;;;;32.85;9.88;;;15.30;99.90;;;;;;4987278;28;20037;-79
2022/10/29 02:01:50;;;;;;;29.60;10.75;;;15.30;99.90;;;;;;4986861;28;20030;-81
2022/10/29 02:04:22;;;;;;;45.08;11.88;;;15.20;99.90;;;;;;4965002;28;20030;-81
2022/10/29 02:07:01;;;;;;;34.17;10.65;;;15.20;99.90;;;;;;4987254;28;20034;-82
2022/10/29 02:09:35;;;;;;;25.95;9.73;;;15.20;99.90;;;;;;4969591;28;20050;-79
2022/10/29 02:12:07;;;;;;;34.95;10.50;;;15.20;99.90;;;;;;4987636;28;20065;-80
2022/10/29 02:14:38;;;;;;;38.20;10.68;;;15.10;99.90;;;;;;4987222;28;20042;-80
2022/10/29 02:17:05;;;;;;;31.05;9.73;;;15.10;99.90;;;;;;4969370;28;20026;-80
2022/10/29 02:19:34;;;;;;;34.28;10.82;;;15.10;99.90;;;;;;4987146;28;20034;-80
2022/10/29 02:22:00;;;;;;;33.67;10.68;;;15.10;99.90;;;;;;4968638;28;20035;-80
2022/10/29 02:24:26;;;;;;;41.53;11.43;;;15.00;99.90;;;;;;4969542;28;20073;-80
2022/10/29 02:26:52;;;;;;;28.05;10.73;;;15.00;99.90;;;;;;4986952;28;20034;-79
2022/10/29 02:29:19;;;;;;;32.10;10.05;;;15.00;99.90;;;;;;4986743;28;20093;-81
2022/10/29 02:31:44;;;;;;;41.53;11.00;;;15.00;99.90;;;;;;4969359;28;20049;-81
2022/10/29 02:34:10;;;;;;;26.15;10.73;;;15.00;99.90;;;;;;4969253;28;20059;-81
2022/10/29 02:36:36;;;;;;;29.42;10.40;;;15.00;99.90;;;;;;4986264;28;20027;-81
2022/10/29 02:39:04;;;;;;;30.90;10.48;;;15.00;99.90;;;;;;4986650;28;20506;-82
2022/10/29 02:41:29;;;;;;;38.85;11.88;;;15.00;99.90;;;;;;4986633;28;20038;-80
2022/10/29 02:43:55;;;;;;;26.85;9.70;;;14.90;99.90;;;;;;4968571;28;20033;-81
2022/10/29 02:46:22;;;;;;;38.33;11.32;;;14.90;99.90;;;;;;4969112;28;20037;-81
2022/10/29 02:48:49;;;;;;;27.17;10.27;;;14.80;99.90;;;;;;4968764;28;20067;-82
2022/10/29 02:51:16;;;;;;;29.48;9.93;;;14.80;99.90;;;;;;4968510;28;20038;-82
2022/10/29 02:53:43;;;;;;;42.38;9.60;;;14.70;99.90;;;;;;4969270;28;20057;-83
2022/10/29 02:56:09;;;;;;;29.60;10.32;;;14.70;99.90;;;;;;4968773;28;20026;-83
2022/10/29 02:58:35;;;;;;;24.73;9.18;;;14.70;99.90;;;;;;4986047;28;20093;-82
2022/10/29 03:01:01;;;;;;;31.50;9.02;;;14.60;99.90;;;;;;4986282;28;20094;-82
2022/10/29 03:03:27;;;;;;;32.75;9.25;;;14.60;99.90;;;;;;4985845;28;20026;-84
2022/10/29 03:05:53;;;;;;;28.15;10.55;;;14.50;99.90;;;;;;4968696;28;20062;-83
2022/10/29 03:08:19;;;;;;;40.33;10.50;;;14.50;99.90;;;;;;4968830;28;20019;-85
2022/10/29 03:10:44;;;;;;;38.42;10.43;;;14.50;99.90;;;;;;4969032;28;20038;-82
2022/10/29 03:13:10;;;;;;;28.98;9.95;;;14.50;99.90;;;;;;4972211;28;20057;-83
2022/10/29 03:15:36;;;;;;;28.67;9.68;;;14.40;99.90;;;;;;4973224;28;20026;-83
2022/10/29 03:18:03;;;;;;;39.67;11.05;;;14.40;99.90;;;;;;4990220;28;20022;-81
2022/10/29 03:20:29;;;;;;;29.27;9.93;;;14.30;99.90;;;;;;4986128;28;20027;-81
2022/10/29 03:22:55;;;;;;;20.40;9.57;;;14.30;99.90;;;;;;4969869;28;20046;-83
2022/10/29 03:25:21;;;;;;;25.67;9.95;;;14.20;99.90;;;;;;4986072;28;20046;-82
2022/10/29 03:27:47;;;;;;;25.75;10.00;;;14.20;99.90;;;;;;4970621;28;20031;-81
2022/10/29 03:30:15;;;;;;;32.55;10.07;;;14.10;99.90;;;;;;4970162;28;20041;-82
2022/10/29 03:32:47;;;;;;;27.60;9.50;;;14.10;99.90;;;;;;4969721;28;20123;-81
2022/10/29 03:35:14;;;;;;;27.30;9.57;;;14.00;99.90;;;;;;4970177;28;20053;-83
2022/10/29 03:37:40;;;;;;;36.47;10.30;;;13.90;99.90;;;;;;4969388;28;20057;-83
2022/10/29 03:40:07;;;;;;;33.13;10.18;;;13.90;99.90;;;;;;4987083;28;20034;-84
2022/10/29 03:42:33;;;;;;;28.80;10.27;;;13.80;99.90;;;;;;4986679;28;20042;-83
2022/10/29 03:45:00;;;;;;;30.55;9.85;;;13.80;99.90;;;;;;4987315;28;20026;-82
2022/10/29 03:47:27;;;;;;;31.27;10.43;;;13.80;99.90;;;;;;4987133;28;20456;-82
2022/10/29 03:49:53;;;;;;;41.38;13.20;;;13.70;99.90;;;;;;4985587;28;20023;-81
2022/10/29 03:52:19;;;;;;;40.10;14.32;;;13.60;99.90;;;;;;4986968;28;20039;-83
2022/10/29 03:54:44;;;;;;;53.78;14.27;;;13.70;99.90;;;;;;4986554;28;20038;-81
2022/10/29 03:57:10;;;;;;;38.70;14.23;;;13.80;99.90;;;;;;4969496;28;20030;-83
2022/10/29 03:59:36;;;;;;;53.83;13.35;;;13.70;99.90;;;;;;4969609;28;20033;-82
2022/10/29 04:02:02;;;;;;;48.30;13.77;;;13.70;99.90;;;;;;4984000;28;20027;-82
2022/10/29 04:04:28;;;;;;;36.50;12.43;;;13.70;99.90;;;;;;4985966;28;20037;-82
2022/10/29 04:06:54;;;;;;;41.88;13.15;;;13.70;99.90;;;;;;4969360;28;20498;-83
2022/10/29 04:09:20;;;;;;;40.67;13.85;;;13.70;99.90;;;;;;4985048;28;20030;-84
2022/10/29 04:11:45;;;;;;;41.85;13.40;;;13.70;99.90;;;;;;4986686;28;20573;-82
2022/10/29 04:14:11;;;;;;;43.22;13.85;;;13.70;99.90;;;;;;4969262;28;20097;-83
2022/10/29 04:16:36;;;;;;;50.80;15.45;;;13.70;99.90;;;;;;4969048;28;20609;-82
2022/10/29 04:19:03;;;;;;;53.88;16.10;;;13.70;99.90;;;;;;4969284;28;20035;-84
2022/10/29 04:21:28;;;;;;;52.63;16.67;;;13.70;99.90;;;;;;4986629;28;20031;-83
2022/10/29 04:23:54;;;;;;;46.50;16.17;;;13.70;99.90;;;;;;4969554;28;20023;-83
2022/10/29 04:26:20;;;;;;;39.00;13.48;;;13.70;99.90;;;;;;4969581;28;20033;-82
2022/10/29 04:28:50;;;;;;;49.80;14.75;;;13.80;99.90;;;;;;4985573;28;20110;-83
2022/10/29 04:31:17;;;;;;;45.58;13.85;;;13.80;99.90;;;;;;4969519;28;20042;-86
2022/10/29 04:33:42;;;;;;;46.70;14.75;;;13.70;99.90;;;;;;4969529;28;20095;-84
2022/10/29 04:36:09;;;;;;;36.80;13.48;;;13.70;99.90;;;;;;4969029;28;20030;-83
2022/10/29 04:38:34;;;;;;;38.42;13.50;;;13.70;99.90;;;;;;4968509;28;20051;-83
2022/10/29 04:41:00;;;;;;;44.17;14.27;;;13.70;99.90;;;;;;4986386;28;20081;-82
2022/10/29 04:43:27;;;;;;;28.50;13.63;;;13.60;99.90;;;;;;4968426;28;20027;-84
2022/10/29 04:45:58;;;;;;;37.25;13.45;;;13.60;99.90;;;;;;4968772;28;20054;-84
2022/10/29 04:48:26;;;;;;;45.15;14.98;;;13.50;99.90;;;;;;4968988;28;20490;-83
2022/10/29 04:50:52;;;;;;;50.97;15.70;;;13.50;99.90;;;;;;4968720;28;20049;-85
2022/10/29 04:53:18;;;;;;;42.58;15.38;;;13.50;99.90;;;;;;4968491;28;20045;-86
2022/10/29 04:55:44;;;;;;;34.63;13.68;;;13.40;99.90;;;;;;4968823;28;20022;-81
2022/10/29 04:58:17;;;;;;;40.75;13.65;;;13.30;99.90;;;;;;4968405;28;20507;-84
2022/10/29 05:00:43;;;;;;;40.05;13.82;;;13.30;99.90;;;;;;4968496;28;20031;-82
2022/10/29 05:03:09;;;;;;;39.85;13.77;;;13.30;99.90;;;;;;4985749;28;20041;-83
2022/10/29 05:05:36;;;;;;;37.78;13.70;;;13.30;99.90;;;;;;4968664;28;20047;-83
2022/10/29 05:08:03;;;;;;;35.90;13.20;;;13.20;99.90;;;;;;4985337;28;20150;-84
2022/10/29 05:10:32;;;;;;;33.25;13.60;;;13.20;99.90;;;;;;4968184;28;20034;-82
2022/10/29 05:13:15;;;;;;;34.10;13.52;;;13.20;99.90;;;;;;4969837;28;20034;-83
2022/10/29 05:15:49;;;;;;;41.03;13.80;;;13.10;99.90;;;;;;4971920;28;20060;-83
2022/10/29 05:18:15;;;;;;;39.15;13.38;;;13.10;99.90;;;;;;4969777;28;20087;-83
2022/10/29 05:20:41;;;;;;;30.38;13.55;;;13.10;99.90;;;;;;4970867;28;20039;-83
2022/10/29 05:23:09;;;;;;;35.42;12.93;;;13.00;99.90;;;;;;4987544;28;20367;-82
2022/10/29 05:25:38;;;;;;;43.47;13.68;;;13.00;99.90;;;;;;4970636;28;20069;-82
2022/10/29 05:28:11;;;;;;;29.95;12.77;;;13.00;99.90;;;;;;4988030;28;20534;-82
2022/10/29 05:30:37;;;;;;;41.10;13.73;;;13.00;99.90;;;;;;4970100;28;20034;-83
2022/10/29 05:33:06;;;;;;;30.33;13.45;;;13.00;99.90;;;;;;4970300;28;20027;-82
2022/10/29 05:35:32;;;;;;;29.13;12.65;;;13.00;99.90;;;;;;4970925;28;20443;-84
2022/10/29 05:37:59;;;;;;;38.05;13.07;;;13.00;99.90;;;;;;4970525;28;20051;-81
2022/10/29 05:40:24;;;;;;;37.42;13.52;;;13.00;99.90;;;;;;4971376;28;20034;-83
2022/10/29 05:42:51;;;;;;;26.13;13.23;;;12.90;99.90;;;;;;4970301;28;20058;-83
2022/10/29 05:45:17;;;;;;;34.10;13.20;;;12.90;99.90;;;;;;4965577;28;20027;-79
2022/10/29 05:47:43;;;;;;;38.90;12.90;;;12.90;99.90;;;;;;4970209;28;20094;-79
2022/10/29 05:50:10;;;;;;;41.85;14.27;;;12.80;99.90;;;;;;4968971;28;20027;-80
2022/10/29 05:52:36;;;;;;;33.92;13.48;;;12.80;99.90;;;;;;4950363;29;20050;-80
2022/10/29 05:55:02;;;;;;;37.72;15.73;;;12.80;99.90;;;;;;4978473;28;20027;-80
2022/10/29 05:57:27;;;;;;;44.00;14.93;;;12.70;99.90;;;;;;4969376;28;20113;-79
2022/10/29 05:59:54;;;;;;;42.97;15.13;;;12.70;99.90;;;;;;4985189;28;20475;-85
2022/10/29 06:02:19;;;;;;;32.75;14.25;;;12.70;99.90;;;;;;4985224;28;20451;-81
2022/10/29 06:04:45;;;;;;;46.90;15.85;;;12.60;99.90;;;;;;4987882;28;20041;-79
2022/10/29 06:07:10;;;;;;;46.95;13.60;;;12.60;99.90;;;;;;4983557;28;20026;-80
2022/10/29 06:09:36;;;;;;;34.00;13.73;;;12.60;99.90;;;;;;4965515;28;20022;-80
2022/10/29 06:12:02;;;;;;;40.88;9.27;;;12.60;99.90;;;;;;4979049;28;20058;-80
2022/10/29 06:14:27;;;;;;;217.43;10.90;;;12.50;99.90;;;;;;4965148;28;20122;-80
2022/10/29 06:16:53;;;;;;;46.55;11.75;;;12.50;99.90;;;;;;4982067;28;20037;-81
2022/10/29 06:19:19;;;;;;;99.10;8.95;;;12.40;99.90;;;;;;4984335;28;20059;-81
2022/10/29 06:21:44;;;;;;;84.70;8.65;;;12.40;99.90;;;;;;4985664;28;20027;-80
2022/10/29 06:24:12;;;;;;;20.85;5.43;;;12.30;99.90;;;;;;4986513;28;20034;-82
2022/10/29 06:26:38;;;;;;;18.50;4.22;;;12.20;99.90;;;;;;4986537;28;20029;-81
2022/10/29 06:29:03;;;;;;;17.52;4.18;;;12.10;99.90;;;;;;4985644;28;20059;-81
2022/10/29 06:31:29;;;;;;;19.52;4.97;;;12.10;99.90;;;;;;4986699;28;20035;-80
2022/10/29 06:33:56;;;;;;;70.90;5.68;;;12.10;99.90;;;;;;4971569;28;20054;-80
2022/10/29 06:36:22;;;;;;;130.95;6.70;;;12.00;99.90;;;;;;4986997;28;20030;-81
2022/10/29 06:38:48;;;;;;;32.25;4.22;;;12.00;99.90;;;;;;4970582;28;20078;-79
2022/10/29 06:41:13;;;;;;;90.00;5.10;;;12.00;99.90;;;;;;4988022;28;20398;-80
2022/10/29 06:43:40;;;;;;;23.73;4.70;;;12.00;99.90;;;;;;4970854;28;20072;-82
2022/10/29 06:46:06;;;;;;;22.30;4.65;;;12.00;99.90;;;;;;4986098;28;20181;-80
2022/10/29 06:48:35;;;;;;;25.33;4.25;;;12.10;99.90;;;;;;4968912;28;20034;-83
2022/10/29 06:51:00;;;;;;;33.63;4.00;;;12.00;99.90;;;;;;4968178;28;20050;-83
2022/10/29 06:53:26;;;;;;;28.13;5.05;;;12.00;99.90;;;;;;4986266;28;20029;-83
2022/10/29 06:55:57;;;;;;;23.02;5.55;;;12.00;99.90;;;;;;4985443;28;20044;-83
2022/10/29 06:58:24;;;;;;;26.55;6.40;;;12.00;99.90;;;;;;4984816;28;20026;-83
2022/10/29 07:00:50;;;;;;;14.20;5.55;;;12.00;99.90;;;;;;4970121;28;20554;-83
2022/10/29 07:03:18;;;;;;;16.52;6.07;;;12.00;99.90;;;;;;4968762;28;20122;-81
2022/10/29 07:05:44;;;;;;;22.85;6.25;;;12.00;99.90;;;;;;4985753;28;20031;-82
2022/10/29 07:08:10;;;;;;;26.98;6.85;;;12.00;99.90;;;;;;4985563;28;20035;-83
2022/10/29 07:10:36;;;;;;;29.02;6.15;;;12.10;99.90;;;;;;4962902;28;20035;-81
2022/10/29 07:13:02;;;;;;;39.55;6.07;;;12.10;99.90;;;;;;4967998;28;20117;-83
2022/10/29 07:15:28;;;;;;;25.35;7.40;;;12.10;99.90;;;;;;4968270;28;20038;-82
2022/10/29 07:17:59;;;;;;;24.35;6.78;;;12.10;99.90;;;;;;4968692;28;20037;-81
2022/10/29 07:20:26;;;;;;;22.05;6.28;;;12.20;99.90;;;;;;4968202;28;20034;-83
2022/10/29 07:22:52;;;;;;;18.83;6.80;;;12.20;99.90;;;;;;4964726;28;20026;-82
2022/10/29 07:25:18;;;;;;;24.35;6.90;;;12.20;99.90;;;;;;4958449;28;20779;-81
2022/10/29 07:27:44;;;;;;;39.25;6.50;;;12.20;99.90;;;;;;4983755;28;20049;-82
2022/10/29 07:30:10;;;;;;;30.73;6.75;;;12.30;99.90;;;;;;4966771;28;20034;-82
2022/10/29 07:32:36;;;;;;;12.18;6.70;;;12.30;99.90;;;;;;4983874;28;20048;-81
2022/10/29 07:35:02;;;;;;;27.40;7.07;;;12.30;99.90;;;;;;4967199;28;20027;-82
2022/10/29 07:37:27;;;;;;;34.47;7.60;;;12.40;99.90;;;;;;4982304;28;20089;-82
2022/10/29 07:39:53;;;;;;;23.92;7.22;;;12.40;99.90;;;;;;4983469;28;20070;-82
2022/10/29 07:42:19;;;;;;;20.13;8.00;;;12.50;99.90;;;;;;4983660;28;20042;-82
2022/10/29 07:44:45;;;;;;;20.10;6.60;;;12.50;99.90;;;;;;4981839;28;20089;-81
2022/10/29 07:47:10;;;;;;;26.75;7.65;;;12.50;99.90;;;;;;4984008;28;20057;-80
2022/10/29 07:49:36;;;;;;;19.23;8.25;;;12.60;99.90;;;;;;4967394;28;20052;-82
2022/10/29 07:52:01;;;;;;;35.95;8.20;;;12.60;99.90;;;;;;4966279;28;20097;-81
2022/10/29 07:54:27;;;;;;;16.73;7.97;;;12.60;99.90;;;;;;4966432;28;20026;-82
2022/10/29 07:56:53;;;;;;;24.05;7.13;;;12.60;99.90;;;;;;4984655;28;20058;-82
2022/10/29 07:59:19;;;;;;;26.35;7.70;;;12.70;99.90;;;;;;4983827;28;20490;-81
2022/10/29 08:01:45;;;;;;;18.35;7.50;;;12.60;99.90;;;;;;4978378;28;20037;-82
2022/10/29 08:04:12;;;;;;;43.55;8.35;;;12.70;99.90;;;;;;4963678;28;20039;-81
2022/10/29 08:06:38;;;;;;;27.10;7.78;;;12.80;99.90;;;;;;4966578;28;20034;-81
2022/10/29 08:09:03;;;;;;;48.95;7.97;;;12.80;99.90;;;;;;4973749;28;20026;-82
2022/10/29 08:11:33;;;;;;;40.63;7.93;;;12.90;99.90;;;;;;4964986;28;20043;-81
2022/10/29 08:13:58;;;;;;;204.52;9.85;;;12.90;99.90;;;;;;4966787;28;20250;-80
2022/10/29 08:16:25;;;;;;;65.20;8.88;;;13.00;99.90;;;;;;4966088;28;20380;-81
2022/10/29 08:18:51;;;;;;;42.15;8.35;;;13.00;99.90;;;;;;4958498;28;20034;-80
2022/10/29 08:21:16;;;;;;;42.65;9.63;;;13.00;99.90;;;;;;4983557;28;20038;-80
2022/10/29 08:23:43;;;;;;;105.18;9.52;;;13.00;99.90;;;;;;4983123;28;20094;-79
2022/10/29 08:26:08;;;;;;;171.57;10.68;;;13.10;99.90;;;;;;4984976;28;20060;-79
2022/10/29 08:28:34;;;;;;;27.60;9.13;;;13.10;99.90;;;;;;4982895;28;20089;-79
2022/10/29 08:31:00;;;;;;;207.50;10.85;;;13.20;99.90;;;;;;4983042;28;20047;-80
2022/10/29 08:33:26;;;;;;;241.13;11.07;;;13.20;99.90;;;;;;4982235;28;20510;-79
2022/10/29 08:36:01;;;;;;;64.22;10.57;;;13.20;99.90;;;;;;4981924;28;20062;-80
2022/10/29 08:38:27;;;;;;;163.95;10.38;;;13.20;99.90;;;;;;4987344;28;20094;-80
2022/10/29 08:41:25;;;;;;;240.07;11.95;;;13.20;99.90;;;;;;4970450;28;20509;-80
2022/10/29 08:44:16;;;;;;;181.18;11.52;;;13.20;99.90;;;;;;4981911;28;20039;-79
2022/10/29 08:47:01;;;;;;;196.52;12.18;;;13.30;99.90;;;;;;4979863;28;20026;-79
2022/10/29 08:49:45;;;;;;;20.92;12.55;;;13.30;99.90;;;;;;4983900;28;20035;-79
2022/10/29 08:52:22;;;;;;;22.05;11.57;;;13.30;99.90;;;;;;4961098;28;20067;-79
2022/10/29 08:54:57;;;;;;;23.60;11.85;;;13.40;99.90;;;;;;4986891;28;20077;-80
2022/10/29 08:57:25;;;;;;;24.20;13.13;;;13.40;99.90;;;;;;4967863;28;20402;-79
2022/10/29 09:00:11;;;;;;;27.98;14.27;;;13.40;99.90;;;;;;4965287;28;20034;-80
2022/10/29 09:02:39;;;;;;;31.95;14.90;;;13.40;99.90;;;;;;4969752;28;20027;-79
2022/10/29 09:05:05;;;;;;;37.08;16.05;;;13.40;99.90;;;;;;4985376;28;20150;-79
2022/10/29 09:07:43;;;;;;;34.00;17.17;;;13.50;99.90;;;;;;4985996;28;20442;-79
2022/10/29 09:10:18;;;;;;;27.85;15.10;;;13.50;99.90;;;;;;4970652;28;20060;-79
2022/10/29 09:12:47;;;;;;;35.92;18.08;;;13.60;99.90;;;;;;4987348;28;20062;-79
2022/10/29 09:15:34;;;;;;;47.45;16.17;;;13.70;99.90;;;;;;4987270;28;20019;-79
2022/10/29 09:18:25;;;;;;;49.35;18.55;;;13.70;99.90;;;;;;4987452;28;20033;-80
2022/10/29 09:21:00;;;;;;;44.63;18.45;;;13.80;99.90;;;;;;4976328;28;20399;-80
2022/10/29 09:23:44;;;;;;;51.92;16.88;;;13.80;99.90;;;;;;4984938;28;20492;-79
2022/10/29 09:26:20;;;;;;;32.05;17.23;;;13.80;99.90;;;;;;4968442;28;20039;-79
2022/10/29 09:28:58;;;;;;;45.15;17.77;;;13.80;99.90;;;;;;4986750;28;20038;-79
2022/10/29 09:31:32;;;;;;;36.38;18.55;;;13.80;99.90;;;;;;4976621;28;20046;-79
2022/10/29 09:34:04;;;;;;;35.72;18.92;;;13.90;99.90;;;;;;4966405;28;20030;-79
2022/10/29 09:36:30;;;;;;;40.47;19.00;;;13.90;99.90;;;;;;4966999;28;20065;-79
2022/10/29 09:39:01;;;;;;;52.17;20.38;;;14.00;99.90;;;;;;4977809;28;20483;-78
2022/10/29 09:41:30;;;;;;;35.70;18.95;;;14.00;99.90;;;;;;4986087;28;20027;-79
2022/10/29 09:44:06;;;;;;;36.05;19.35;;;14.10;99.90;;;;;;4973410;28;20046;-79
2022/10/29 09:47:25;;;;;;;41.90;21.67;;;14.20;99.90;;;;;;4981478;28;20093;-80
2022/10/29 09:50:16;;;;;;;39.97;20.42;;;14.30;99.90;;;;;;4925683;29;20067;-80
2022/10/29 09:52:44;;;;;;;42.95;21.35;;;14.50;99.90;;;;;;4980165;28;20074;-79
2022/10/29 09:55:43;;;;;;;42.70;20.65;;;14.60;99.90;;;;;;4978183;28;20047;-78
2022/10/29 09:58:22;;;;;;;40.72;20.42;;;14.80;99.90;;;;;;4964025;28;20033;-79
2022/10/29 10:00:48;;;;;;;50.55;21.02;;;14.90;99.90;;;;;;4965790;28;20090;-78
2022/10/29 10:03:25;;;;;;;38.78;19.55;;;15.00;99.90;;;;;;4965772;28;20031;-78
2022/10/29 10:06:06;;;;;;;39.72;18.38;;;15.10;99.90;;;;;;4954692;28;20026;-78
2022/10/29 10:08:34;;;;;;;43.30;20.00;;;15.30;99.90;;;;;;4985109;28;20031;-79
2022/10/29 10:11:05;;;;;;;29.80;16.92;;;15.50;99.90;;;;;;4983578;28;20057;-78
2022/10/29 10:13:48;;;;;;;32.50;17.38;;;15.60;99.90;;;;;;4985404;28;20062;-78
2022/10/29 10:16:23;;;;;;;33.95;17.00;;;15.80;99.90;;;;;;4983297;28;20023;-79
2022/10/29 10:18:49;;;;;;;30.15;15.60;;;15.90;99.90;;;;;;4978426;28;20019;-79
2022/10/29 10:21:24;;;;;;;39.83;17.67;;;16.00;99.90;;;;;;4967876;28;20049;-78
2022/10/29 10:23:51;;;;;;;37.88;17.77;;;16.00;99.90;;;;;;4981419;28;20039;-78
2022/10/29 10:26:30;;;;;;;30.52;15.32;;;16.10;99.90;;;;;;4985919;28;20082;-78
2022/10/29 10:29:03;;;;;;;32.80;16.50;;;16.20;99.90;;;;;;4986475;28;20042;-79
2022/10/29 10:31:29;;;;;;;33.80;15.18;;;16.30;99.90;;;;;;4986892;28;20098;-77
2022/10/29 10:33:55;;;;;;;37.20;17.02;;;16.40;99.90;;;;;;4985048;28;20031;-79
2022/10/29 10:36:25;;;;;;;27.40;14.70;;;16.50;99.90;;;;;;4983645;28;20027;-79
2022/10/29 10:38:58;;;;;;;37.05;16.02;;;16.50;99.90;;;;;;4983741;28;20113;-79
2022/10/29 10:41:28;;;;;;;32.90;14.87;;;16.50;99.90;;;;;;4983482;28;20503;-80
2022/10/29 10:43:59;;;;;;;39.05;16.67;;;16.50;99.90;;;;;;4984318;28;20030;-78
2022/10/29 10:46:32;;;;;;;36.55;15.48;;;16.50;99.90;;;;;;4964533;29;20027;-79
2022/10/29 10:49:05;;;;;;;37.50;16.13;;;16.50;99.90;;;;;;4985077;28;20038;-78
2022/10/29 10:51:34;;;;;;;36.22;16.67;;;16.50;99.90;;;;;;4984595;28;20039;-78
2022/10/29 10:54:09;;;;;;;44.38;16.90;;;16.50;99.90;;;;;;4985639;28;20031;-78
2022/10/29 10:57:00;;;;;;;44.35;17.00;;;16.60;99.90;;;;;;4983876;28;20039;-79
2022/10/29 10:59:47;;;;;;;45.05;16.17;;;16.60;99.90;;;;;;4986353;28;20054;-78
2022/10/29 11:02:45;;;;;;;34.92;16.58;;;16.70;99.90;;;;;;4961174;28;20050;-80
2022/10/29 11:05:28;;;;;;;41.88;16.30;;;16.70;99.90;;;;;;4961056;28;20063;-80
2022/10/29 11:08:11;;;;;;;50.80;17.23;;;16.80;99.90;;;;;;4985723;28;20447;-79
2022/10/29 11:10:59;;;;;;;38.83;16.27;;;16.90;99.90;;;;;;4967225;28;20023;-80
2022/10/29 11:13:29;;;;;;;50.00;16.08;;;16.90;99.90;;;;;;4985499;28;20037;-79
2022/10/29 11:16:07;;;;;;;35.65;16.13;;;16.80;99.90;;;;;;4985232;28;20031;-79
2022/10/29 11:18:46;;;;;;;46.72;15.90;;;16.80;99.90;;;;;;4964836;29;20031;-77
2022/10/29 11:21:36;;;;;;;39.00;15.93;;;16.80;99.90;;;;;;4965944;28;20034;-79
2022/10/29 11:24:24;;;;;;;40.10;15.98;;;16.70;99.90;;;;;;4973782;28;20040;-78
2022/10/29 11:27:04;;;;;;;34.83;15.02;;;16.80;99.90;;;;;;4947762;29;20031;-79
2022/10/29 11:30:01;;;;;;;40.50;15.73;;;16.80;99.90;;;;;;4977690;28;20026;-78
2022/10/29 11:32:45;;;;;;;38.65;16.48;;;16.90;99.90;;;;;;4967380;28;20399;-79
2022/10/29 11:35:40;;;;;;;33.83;14.82;;;17.10;99.90;;;;;;4982828;28;20598;-78
2022/10/29 11:38:21;;;;;;;40.08;16.55;;;17.30;99.90;;;;;;4985114;28;20073;-77
2022/10/29 11:40:53;;;;;;;44.25;15.38;;;17.30;99.90;;;;;;4968104;28;20031;-76
2022/10/29 11:43:20;;;;;;;34.63;14.77;;;17.50;99.90;;;;;;4966207;28;20030;-77
2022/10/29 11:46:15;;;;;;;32.92;14.75;;;17.60;99.90;;;;;;4963410;28;20085;-77
2022/10/29 11:49:18;;;;;;;35.40;14.23;;;17.70;99.90;;;;;;4920232;28;20054;-75
2022/10/29 11:52:13;;;;;;;32.30;15.38;;;17.60;99.90;;;;;;4979867;28;20074;-77
2022/10/29 11:54:53;;;;;;;28.75;14.75;;;17.50;99.90;;;;;;4984972;28;20026;-76
2022/10/29 11:57:40;;;;;;;38.90;15.65;;;17.50;99.90;;;;;;4984600;28;20043;-76
2022/10/29 12:00:13;;;;;;;34.28;14.70;;;17.40;99.90;;;;;;4983933;28;20031;-77
2022/10/29 12:02:51;;;;;;;37.55;15.32;;;17.40;99.90;;;;;;4984708;28;20069;-77
2022/10/29 12:05:35;;;;;;;34.83;16.33;;;17.30;99.90;;;;;;4978626;28;20031;-76
2022/10/29 12:08:19;;;;;;;39.40;15.73;;;17.30;99.90;;;;;;4967070;28;20031;-78
2022/10/29 12:10:48;;;;;;;34.80;16.70;;;17.30;99.90;;;;;;4982412;28;20078;-77
2022/10/29 12:13:29;;;;;;;36.33;16.05;;;17.20;99.90;;;;;;4967327;28;20039;-77
2022/10/29 12:15:57;;;;;;;40.10;17.20;;;17.20;99.90;;;;;;4967984;28;20026;-78
2022/10/29 12:18:41;;;;;;;39.60;16.48;;;17.20;99.90;;;;;;4984984;28;20097;-79
2022/10/29 12:21:39;;;;;;;37.97;16.20;;;17.20;99.90;;;;;;4967628;28;20023;-79
2022/10/29 12:24:46;;;;;;;41.80;16.13;;;17.30;99.90;;;;;;4971039;28;20090;-78
2022/10/29 12:27:38;;;;;;;37.78;15.63;;;17.40;99.90;;;;;;4970948;28;20030;-78
2022/10/29 12:30:07;;;;;;;37.22;15.90;;;17.40;99.90;;;;;;4986335;28;20030;-78
2022/10/29 12:32:52;;;;;;;30.55;14.70;;;17.40;99.90;;;;;;4986713;28;20054;-78
2022/10/29 12:35:21;;;;;;;38.63;16.77;;;17.50;99.90;;;;;;4969740;28;20035;-79
2022/10/29 12:38:15;;;;;;;36.97;14.60;;;17.50;99.90;;;;;;4985257;28;20066;-79
2022/10/29 12:40:44;;;;;;;35.20;16.23;;;17.70;99.90;;;;;;4974507;28;20046;-79
2022/10/29 12:43:24;;;;;;;37.92;16.20;;;18.00;99.90;;;;;;4988395;28;20035;-79
2022/10/29 12:46:11;;;;;;;37.85;15.18;;;18.30;99.90;;;;;;4988443;28;20049;-79
2022/10/29 12:48:57;;;;;;;38.35;15.90;;;18.50;99.90;;;;;;4987187;28;20034;-79
2022/10/29 12:51:47;;;;;;;26.00;14.07;;;18.80;99.90;;;;;;4965758;28;20042;-80
2022/10/29 12:54:38;;;;;;;34.30;16.08;;;19.10;99.90;;;;;;4971172;28;20035;-77